avis per tempestes more information blitzortung!


avis per Pluja more information rain snow radar


Visita la nostra xarxa de llocs de meteo:

Template documentation
and downloads

And another site



Thunderstorms From: 20-07-2018 17:00 Until: 21-07-2018 01:59 warning for: Thunderstorms Level: Yellow info button
Rain From: 20-07-2018 17:00 Until: 21-07-2018 01:59 warning for: Rain Level: Yellow info button

Pagina Historial Weather Underground text

Diari Resum Juny 28, 2017 Unitats:  Mètric    Imperial   Tant
« Previous Dia
SegĂźent Dia »
Diari Setmana Mensual Anual Personalitzada
  Maxima: Minima: Media:
Temperatura: -17.8 °C -8.8 °C -4.1 °C
Punt de rosada: -17.8 °C -13 °C -11.1 °C
Humitat: Humidity % 28 % 48 %
Wind Speed: 0 km/h 0 km/h 16.1 km/h
RĂ fegues de vent: 0 km/h - -
Vent:- - SSW
Pression baro: 0 hPa 33856.6 hPa -
Precipitacions: 50.8 mm    
Historical Graphs
 
 
Dades de taula per Juny 28, 2017
Temps Temperatura Punt de rosada Pression baro Vent Wind Speed RĂ fegues de vent Humitat Rainfall Rate (Hourly)
-17.8 °C -17.8 °C 0 hPa Calm     Humidity % 0 mm
00:00 -6.1 °C -8.7 °C 33992.1 hPa ENE 5.1 km/h 7.7 km/h 75 % 0 mm
00:04 -4.8 °C -7.6 °C 33958.2 hPa Calm     73 % 0 mm
00:10 -6.1 °C -8.6 °C 33992.1 hPa ENE 2.6 km/h 7.7 km/h 76 % 0 mm
00:20 -6.1 °C -8.6 °C 33992.1 hPa NE 5.1 km/h 10.3 km/h 76 % 0 mm
00:30 -6.1 °C -8.6 °C 33992.1 hPa NE 5.1 km/h 7.7 km/h 76 % 0 mm
00:40 -6.2 °C -8.5 °C 33958.2 hPa Calm   5.1 km/h 77 % 0 mm
00:50 -6.2 °C -8.6 °C 33958.2 hPa Calm   5.1 km/h 77 % 0 mm
01:00 -6.2 °C -8.6 °C 33958.2 hPa Calm   5.1 km/h 77 % 0 mm
01:10 -6.3 °C -8.7 °C 33992.1 hPa North 2.6 km/h 5.1 km/h 77 % 0 mm
01:20 -6.4 °C -8.8 °C 33958.2 hPa Calm   2.6 km/h 77 % 0 mm
01:30 -6.5 °C -8.8 °C 33958.2 hPa Calm     77 % 0 mm
01:40 -6.6 °C -8.8 °C 33958.2 hPa Calm   2.6 km/h 78 % 0 mm
01:50 -6.6 °C -8.8 °C 33958.2 hPa Calm   2.6 km/h 78 % 0 mm
02:00 -6.6 °C -8.8 °C 33958.2 hPa West 2.6 km/h 5.1 km/h 78 % 0 mm
02:10 -6.6 °C -8.8 °C 33992.1 hPa WSW 2.6 km/h 5.1 km/h 78 % 0 mm
02:20 -6.6 °C -8.8 °C 33992.1 hPa Calm   7.7 km/h 78 % 0 mm
02:30 -6.6 °C -8.8 °C 33992.1 hPa WSW 5.1 km/h 7.7 km/h 78 % 0 mm
02:40 -6.4 °C -8.7 °C 33958.2 hPa SW 2.6 km/h 5.1 km/h 78 % 0 mm
02:50 -6.3 °C -8.6 °C 33992.1 hPa SW 5.1 km/h 5.1 km/h 78 % 0 mm
03:00 -6.1 °C -8.4 °C 33992.1 hPa WSW 5.1 km/h 7.7 km/h 77 % 0 mm
03:10 -5.8 °C -8.2 °C 33992.1 hPa WSW 5.1 km/h 10.3 km/h 76 % 0 mm
03:20 -5.5 °C -8.6 °C 33992.1 hPa WSW 7.7 km/h 12.9 km/h 71 % 0 mm
03:30 -5.2 °C -8.7 °C 33992.1 hPa West 7.7 km/h 10.3 km/h 67 % 0 mm
03:40 -5 °C -9.3 °C 33992.1 hPa West 7.7 km/h 15.6 km/h 62 % 0 mm
03:50 -5.1 °C -9.8 °C 33958.2 hPa WSW 7.7 km/h 20.8 km/h 59 % 0 mm
04:00 -5.3 °C -10.2 °C 33958.2 hPa WSW 7.7 km/h 15.6 km/h 57 % 0 mm
04:10 -4.8 °C -9.9 °C 34029.3 hPa WSW 5.1 km/h 7.7 km/h 56 % 0 mm
04:20 -4.6 °C -9.9 °C 33992.1 hPa WSW 7.7 km/h 7.7 km/h 55 % 0 mm
04:30 -4.4 °C -10.1 °C 33992.1 hPa WSW 7.7 km/h 10.3 km/h 53 % 0 mm
04:40 -4.2 °C -10 °C 33958.2 hPa WSW 5.1 km/h 10.3 km/h 52 % 0 mm
04:50 -4.1 °C -10.1 °C 33992.1 hPa WSW 7.7 km/h 10.3 km/h 51 % 0 mm
05:00 -3.9 °C -10.2 °C 33992.1 hPa WSW 12.9 km/h 18.2 km/h 49 % 0 mm
05:10 -3.8 °C -10.3 °C 33992.1 hPa WSW 7.7 km/h 12.9 km/h 48 % 0 mm
05:20 -3.5 °C -10.2 °C 33992.1 hPa WSW 15.6 km/h 15.6 km/h 47 % 0 mm
05:30 -3.2 °C -10.2 °C 33992.1 hPa WSW 7.7 km/h 15.6 km/h 46 % 0 mm
05:40 -3.2 °C -10.5 °C 33992.1 hPa West 12.9 km/h 15.6 km/h 44 % 0 mm
10:45 -3 °C -10.8 °C 33958.2 hPa West 26.9 km/h 26.9 km/h 42 % 0 mm
10:46 -3 °C -10.8 °C 33958.2 hPa WSW 26.9 km/h 26.9 km/h 42 % 0 mm
10:51 -2.8 °C -10.6 °C 33958.2 hPa South 9 km/h 9 km/h 42 % 0 mm
10:56 -2.7 °C -10.7 °C 33958.2 hPa SSW 12.2 km/h 12.2 km/h 41 % 0 mm
10:57 -2.8 °C -10.8 °C 33958.2 hPa West 15 km/h 15 km/h 41 % 0 mm
11:02 -3 °C -10.9 °C 33958.2 hPa WSW 9 km/h 9 km/h 41 % 0 mm
11:07 -2.9 °C -11.1 °C 33958.2 hPa WNW 20.9 km/h 20.9 km/h 40 % 0 mm
11:12 -2.9 °C -11.3 °C 33958.2 hPa SW 23.8 km/h 23.8 km/h 39 % 0 mm
11:17 -2.7 °C -11.2 °C 33958.2 hPa WSW 10.3 km/h 10.3 km/h 39 % 0 mm
11:22 -2.5 °C -11.2 °C 33958.2 hPa WSW 15 km/h 15 km/h 38 % 0 mm
11:23 -2.5 °C -11.2 °C 33958.2 hPa West 20.9 km/h 20.9 km/h 38 % 0 mm
11:28 -2.6 °C -11.4 °C 33958.2 hPa West 20.9 km/h 20.9 km/h 37 % 0 mm
11:33 -2.6 °C -11.4 °C 33958.2 hPa WSW 15 km/h 15 km/h 37 % 0 mm
11:38 -2.5 °C -11.6 °C 33958.2 hPa WSW 20.9 km/h 20.9 km/h 36 % 0 mm
11:43 -2.3 °C -11.5 °C 33958.2 hPa SW 15 km/h 15 km/h 36 % 0 mm
11:48 -2.4 °C -11.6 °C 33958.2 hPa West 17.9 km/h 17.9 km/h 36 % 0 mm
11:53 -2.6 °C -11.7 °C 33958.2 hPa West 17.9 km/h 17.9 km/h 36 % 0 mm
11:58 -2.7 °C -11.8 °C 33958.2 hPa West 15 km/h 15 km/h 36 % 0 mm
12:03 -2.6 °C -11.7 °C 33958.2 hPa South 15 km/h 15 km/h 36 % 0 mm
12:08 -2.4 °C -11.5 °C 33958.2 hPa SW 11.9 km/h 11.9 km/h 36 % 0 mm
12:13 -2.7 °C -12.1 °C 33958.2 hPa WSW 26.9 km/h 26.9 km/h 35 % 0 mm
12:18 -2.5 °C -11.8 °C 33958.2 hPa WSW 15 km/h 15 km/h 35 % 0 mm
12:23 -2.3 °C -11.7 °C 33958.2 hPa WNW 17.9 km/h 17.9 km/h 35 % 0 mm
12:28 -2.2 °C -11.8 °C 33958.2 hPa West 26.9 km/h 26.9 km/h 34 % 0 mm
12:33 -2.1 °C -12 °C 33958.2 hPa West 20.9 km/h 20.9 km/h 33 % 0 mm
12:38 -1.7 °C -11.6 °C 33958.2 hPa West 15 km/h 15 km/h 33 % 0 mm
12:43 -2 °C -11.9 °C 33924.3 hPa WSW 23.8 km/h 23.8 km/h 33 % 0 mm
12:48 -1.9 °C -12.1 °C 33924.3 hPa WSW 17.9 km/h 17.9 km/h 32 % 0 mm
12:53 -2.1 °C -12.2 °C 33924.3 hPa WNW 15 km/h 15 km/h 32 % 0 mm
12:58 -1.8 °C -11.8 °C 33924.3 hPa SW 15 km/h 15 km/h 33 % 0 mm
13:03 -1.7 °C -11.9 °C 33924.3 hPa WSW 20.9 km/h 20.9 km/h 32 % 0 mm
13:08 -2 °C -12.2 °C 33924.3 hPa WSW 17.9 km/h 17.9 km/h 32 % 0 mm
13:13 -2.2 °C -12.3 °C 33924.3 hPa SW 15.6 km/h 15.6 km/h 32 % 0 mm
13:18 -1.8 °C -12.2 °C 33924.3 hPa South 20.9 km/h 20.9 km/h 31 % 0 mm
13:23 -1.7 °C -12.1 °C 33924.3 hPa WSW 23.8 km/h 23.8 km/h 31 % 0 mm
13:28 -1.4 °C -11.9 °C 33924.3 hPa West 6 km/h 7.6 km/h 31 % 0 mm
13:33 -1.3 °C -11.8 °C 33924.3 hPa West 15 km/h 15 km/h 31 % 0 mm
13:38 -1.3 °C -11.8 °C 33924.3 hPa West 29.8 km/h 29.8 km/h 31 % 0 mm
13:43 -1.3 °C -11.8 °C 33924.3 hPa WSW 20.9 km/h 20.9 km/h 31 % 0 mm
13:48 -1.3 °C -11.8 °C 33924.3 hPa SSW 19.6 km/h 19.6 km/h 31 % 0 mm
13:53 -1.2 °C -12 °C 33924.3 hPa SW 26.9 km/h 26.9 km/h 30 % 0 mm
13:58 -1.2 °C -12 °C 33924.3 hPa West 9 km/h 9 km/h 30 % 0 mm
14:03 -1.3 °C -12.3 °C 33924.3 hPa WSW 26.9 km/h 26.9 km/h 29 % 0 mm
14:08 -1.3 °C -12.4 °C 33924.3 hPa South 23.8 km/h 23.8 km/h 29 % 0 mm
14:13 -1.3 °C -12.4 °C 33924.3 hPa West 32.8 km/h 32.8 km/h 29 % 0 mm
14:18 -1.3 °C -12.3 °C 33924.3 hPa West 41.7 km/h 41.7 km/h 29 % 0 mm
14:23 -1.4 °C -12.8 °C 33924.3 hPa West 26.9 km/h 26.9 km/h 28 % 0 mm
14:28 -1.3 °C -12.7 °C 33924.3 hPa SW 17.9 km/h 17.9 km/h 28 % 0 mm
14:33 -1.1 °C -12.5 °C 33924.3 hPa SW 26.9 km/h 26.9 km/h 28 % 0 mm
14:38 -1.2 °C -12.6 °C 33924.3 hPa West 27.2 km/h 27.2 km/h 28 % 0 mm
14:43 -1.2 °C -12.6 °C 33924.3 hPa SW 32.8 km/h 32.8 km/h 28 % 0 mm
14:48 -1 °C -12.4 °C 33924.3 hPa WSW 20.9 km/h 20.9 km/h 28 % 0 mm
14:53 -1.1 °C -12.5 °C 33924.3 hPa WNW 15 km/h 15 km/h 28 % 0 mm
14:58 -0.8 °C -12.3 °C 33890.5 hPa WSW 14.5 km/h 14.5 km/h 28 % 0 mm
15:03 -1.2 °C -12.6 °C 33890.5 hPa West 20.9 km/h 20.9 km/h 28 % 0 mm
15:08 -1.1 °C -12.4 °C 33890.5 hPa ESE 23.8 km/h 23.8 km/h 28 % 0 mm
15:13 -1.1 °C -12.4 °C 33890.5 hPa West 16.1 km/h 16.1 km/h 28 % 0 mm
15:18 -0.9 °C -12.3 °C 33890.5 hPa WNW 26.9 km/h 26.9 km/h 28 % 0 mm
15:23 -1.1 °C -12.4 °C 33890.5 hPa WSW 17.9 km/h 17.9 km/h 28 % 0 mm
15:28 -0.9 °C -12.3 °C 33890.5 hPa SW 15 km/h 15 km/h 28 % 0 mm
15:33 -1 °C -12.4 °C 33890.5 hPa WSW 16.6 km/h 16.6 km/h 28 % 0 mm
15:38 -1.1 °C -12.4 °C 33890.5 hPa SSE 19.2 km/h 19.2 km/h 28 % 0 mm
15:43 -1.1 °C -12.4 °C 33856.6 hPa WSW 20.9 km/h 20.9 km/h 28 % 0 mm
15:48 -0.5 °C -12 °C 33856.6 hPa SSW 29.8 km/h 29.8 km/h 28 % 0 mm
15:53 -0.3 °C -11.8 °C 33856.6 hPa South 17.9 km/h 17.9 km/h 28 % 0 mm
15:58 -0.6 °C -12.1 °C 33856.6 hPa SSW 29.8 km/h 29.8 km/h 28 % 0 mm
15:59 -0.6 °C -12.1 °C 33856.6 hPa WSW 29.8 km/h 29.8 km/h 28 % 0 mm
16:04 -0.6 °C -12.1 °C 33856.6 hPa WNW 32.8 km/h 32.8 km/h 28 % 0 mm
16:09 -1.1 °C -12.5 °C 33856.6 hPa WSW 20.9 km/h 20.9 km/h 28 % 0 mm
16:14 -1.3 °C -12.7 °C 33856.6 hPa SW 15.6 km/h 15.6 km/h 28 % 0 mm
16:19 -1.6 °C -12.9 °C 33856.6 hPa West 26.9 km/h 26.9 km/h 28 % 0 mm
16:24 -1.7 °C -12.9 °C 33856.6 hPa SW 17.9 km/h 17.9 km/h 28 % 0 mm
16:29 -1.7 °C -12.9 °C 33890.5 hPa SW 23.3 km/h 23.3 km/h 28 % 0 mm
16:34 -1.7 °C -12.9 °C 33890.5 hPa SW 15 km/h 15 km/h 28 % 0 mm
16:39 -1.9 °C -12.9 °C 33890.5 hPa SW 20.9 km/h 20.9 km/h 29 % 0 mm
16:44 -1.9 °C -12.9 °C 33856.6 hPa South 38.8 km/h 38.8 km/h 29 % 0 mm
16:49 -2.1 °C -13 °C 33856.6 hPa West 29.8 km/h 29.8 km/h 29 % 0 mm
16:54 -2 °C -12.9 °C 33856.6 hPa WSW 44.7 km/h 44.7 km/h 29 % 0 mm
16:59 -1.9 °C -12.7 °C 33856.6 hPa WSW 26.9 km/h 26.9 km/h 30 % 0 mm
17:04 -1.9 °C -12.6 °C 33856.6 hPa SW 29.8 km/h 29.8 km/h 30 % 0 mm
17:09 -1.9 °C -12.7 °C 33856.6 hPa WSW 23.8 km/h 23.8 km/h 30 % 0 mm
17:14 -1.7 °C -12.4 °C 33856.6 hPa SW 26.9 km/h 26.9 km/h 30 % 0 mm
17:19 -2 °C -12.7 °C 33856.6 hPa West 35.7 km/h 35.7 km/h 30 % 0 mm
17:24 -2.2 °C -12.6 °C 33856.6 hPa SSW 47.6 km/h 47.6 km/h 31 % 0 mm
17:29 -2.2 °C -12.6 °C 33856.6 hPa SW 35.7 km/h 35.7 km/h 31 % 0 mm
17:34 -2.3 °C -12.2 °C 33856.6 hPa SSW 35.7 km/h 35.7 km/h 33 % 0 mm
17:40 -2.2 °C -12.1 °C 33856.6 hPa SSW 48.4 km/h 48.4 km/h 33 % 0 mm
17:45 -2.3 °C -11.9 °C 33856.6 hPa SW 53.6 km/h 53.6 km/h 34 % 0 mm
17:50 -2.4 °C -11.8 °C 33856.6 hPa SW 35.7 km/h 35.7 km/h 35 % 0 mm
17:55 -2.1 °C -11.2 °C 33856.6 hPa SW 25.9 km/h 25.9 km/h 36 % 0 mm
18:00 -2.2 °C -11.3 °C 33856.6 hPa South 25.9 km/h 25.9 km/h 36 % 0 mm
18:05 -2.3 °C -11.2 °C 33856.6 hPa West 35.7 km/h 35.7 km/h 37 % 0 mm
18:10 -2.2 °C -11.3 °C 33856.6 hPa SW 31.9 km/h 31.9 km/h 36 % 0 mm
18:15 -2.2 °C -11.3 °C 33856.6 hPa SSW 35.7 km/h 35.7 km/h 36 % 0 mm
18:20 -2.3 °C -11.4 °C 33856.6 hPa SW 32.8 km/h 32.8 km/h 36 % 0 mm
18:25 -2.5 °C -11.6 °C 33856.6 hPa SW 26.9 km/h 26.9 km/h 36 % 0 mm
18:30 -2.7 °C -11.6 °C 33856.6 hPa SW 33.6 km/h 33.6 km/h 37 % 0 mm
18:35 -2.9 °C -11.3 °C 33856.6 hPa WSW 32.8 km/h 32.8 km/h 39 % 0 mm
18:40 -3.2 °C -11.3 °C 33856.6 hPa SW 33.6 km/h 33.6 km/h 40 % 0 mm
18:45 -3.2 °C -11.3 °C 33856.6 hPa West 38.8 km/h 38.8 km/h 40 % 0 mm
18:50 -3.3 °C -11.3 °C 33856.6 hPa WSW 38.8 km/h 38.8 km/h 41 % 0 mm
18:55 -3.3 °C -11.2 °C 33856.6 hPa SW 23.8 km/h 23.8 km/h 41 % 0 mm
19:00 -3.4 °C -11.1 °C 33856.6 hPa South 26.9 km/h 26.9 km/h 42 % 0 mm
19:05 -3.4 °C -10.9 °C 33856.6 hPa South 23.8 km/h 23.8 km/h 43 % 0 mm
19:10 -3.6 °C -10.9 °C 33856.6 hPa West 25.4 km/h 25.4 km/h 44 % 0 mm
19:15 -3.9 °C -11 °C 33856.6 hPa WSW 53.6 km/h 53.6 km/h 45 % 0 mm
19:20 -6.2 °C -11.6 °C 33856.6 hPa SSW 35.7 km/h 35.7 km/h 54 % 0 mm
19:25 -7 °C -11.6 °C 33856.6 hPa SW 15 km/h 15 km/h 59 % 50.8 mm
19:30 -7.2 °C -11.6 °C 33924.3 hPa SW 11.9 km/h 11.9 km/h 60 % 50.8 mm
19:35 -7.3 °C -11.3 °C 33924.3 hPa SSW 15 km/h 15 km/h 63 % 50.8 mm
19:40 -7.4 °C -11.3 °C 33924.3 hPa WSW 9 km/h 9 km/h 64 % 50.8 mm
19:45 -7.3 °C -11.1 °C 33890.5 hPa West 9 km/h 9 km/h 65 % 50.8 mm
19:50 -7.2 °C -10.8 °C 33890.5 hPa West 6 km/h 6 km/h 66 % 50.8 mm
19:55 -7.1 °C -10.9 °C 33890.5 hPa NW 4.2 km/h 4.2 km/h 65 % 50.8 mm
20:00 -7 °C -10.5 °C 33924.3 hPa East 9 km/h 9 km/h 67 % 50.8 mm
20:05 -6.9 °C -10.6 °C 33924.3 hPa East 6.3 km/h 6.3 km/h 66 % 50.8 mm
20:10 -6.9 °C -10.4 °C 33924.3 hPa ENE 9.3 km/h 9.3 km/h 67 % 50.8 mm
20:15 -6.8 °C -10.3 °C 33924.3 hPa South 6 km/h 6 km/h 67 % 50.8 mm
20:20 -6.9 °C -10.5 °C 33924.3 hPa East 9 km/h 9 km/h 66 % 50.8 mm
20:25 -6.9 °C -10.7 °C 33924.3 hPa NE 6 km/h   65 % 0 mm
20:30 -6.9 °C -10.7 °C 33924.3 hPa NE 3.1 km/h   65 % 0 mm
20:35 -6.9 °C -10.8 °C 33924.3 hPa West 3.1 km/h   64 % 0 mm
20:40 -6.8 °C -10.7 °C 33924.3 hPa Calm     64 % 0 mm
20:45 -6.8 °C -11 °C 33924.3 hPa WSW 6 km/h 6 km/h 62 % 0 mm
20:50 -6.8 °C -10.8 °C 33924.3 hPa Calm     63 % 0 mm
20:55 -6.7 °C -10.7 °C 33924.3 hPa SE 3.1 km/h   63 % 0 mm
21:00 -6.7 °C -10.9 °C 33924.3 hPa Calm     62 % 0 mm
21:05 -6.7 °C -10.5 °C 33924.3 hPa WSW 4.2 km/h   65 % 0 mm
21:10 -6.8 °C -10.3 °C 33924.3 hPa WSW 3.1 km/h   67 % 0 mm
21:15 -6.9 °C -10.4 °C 33924.3 hPa Calm     67 % 0 mm
21:20 -6.9 °C -10.4 °C 33924.3 hPa WNW 3.1 km/h   67 % 0 mm
21:25 -6.9 °C -10.4 °C 33924.3 hPa Calm     67 % 0 mm
21:30 -6.9 °C -10.2 °C 33958.2 hPa NE 5.1 km/h 5.1 km/h 69 % 0 mm
21:35 -7.1 °C -10.4 °C 33958.2 hPa ENE 3.7 km/h 3.7 km/h 68 % 0 mm
21:40 -7.1 °C -10.6 °C 33958.2 hPa NE 6 km/h 6 km/h 67 % 0 mm
21:45 -6.9 °C -10.6 °C 33958.2 hPa ENE 12.7 km/h 12.7 km/h 66 % 0 mm
21:50 -6.9 °C -10.7 °C 33958.2 hPa North 11.9 km/h 11.9 km/h 65 % 0 mm
21:55 -6.8 °C -10.7 °C 33958.2 hPa NE 15 km/h 15 km/h 64 % 0 mm
22:00 -6.8 °C -10.6 °C 33992.1 hPa NNE 11.9 km/h 11.9 km/h 65 % 0 mm
22:05 -6.8 °C -10.6 °C 33992.1 hPa NNE 15 km/h 15 km/h 65 % 0 mm
22:10 -6.8 °C -10.6 °C 33992.1 hPa West 11.9 km/h 11.9 km/h 65 % 0 mm
22:15 -7 °C -10.7 °C 33992.1 hPa NNE 8.5 km/h 8.5 km/h 65 % 0 mm
22:20 -6.9 °C -10.8 °C 33992.1 hPa WSW 9 km/h 9 km/h 64 % 0 mm
22:25 -6.8 °C -10.7 °C 33992.1 hPa East 6.3 km/h 6.3 km/h 64 % 0 mm
22:30 -6.7 °C -10.9 °C 33958.2 hPa NNW 3.1 km/h 3.7 km/h 62 % 0 mm
22:35 -6.6 °C -11 °C 33958.2 hPa East 6 km/h 6 km/h 60 % 0 mm
22:40 -6.7 °C -10.8 °C 33958.2 hPa East 9 km/h 9 km/h 62 % 0 mm
22:45 -6.9 °C -10.7 °C 33958.2 hPa ESE 11.9 km/h 11.9 km/h 65 % 0 mm
22:50 -7 °C -10.7 °C 33958.2 hPa SSE 9 km/h 9 km/h 65 % 0 mm
22:55 -7.1 °C -10.7 °C 33958.2 hPa SE 9 km/h 9 km/h 66 % 0 mm
23:00 -7.1 °C -10.9 °C 33992.1 hPa SSW 2.3 km/h   65 % 0 mm
23:05 -7.2 °C -10.8 °C 33992.1 hPa WSW 6 km/h 6 km/h 66 % 0 mm
23:10 -7.3 °C -10.8 °C 33992.1 hPa SW 2.3 km/h   67 % 0 mm
23:15 -7.4 °C -10.7 °C 33958.2 hPa Calm     68 % 0 mm
23:20 -7.4 °C -10.7 °C 33958.2 hPa NE 6 km/h 6 km/h 68 % 0 mm
23:25 -8.8 °C -11 °C 34063.2 hPa SW 5.1 km/h 5.1 km/h 77 % 0 mm
23:30 -7.3 °C -10.7 °C 33992.1 hPa East 11.1 km/h 11.1 km/h 68 % 0 mm
23:35 -7.3 °C -10.7 °C 33992.1 hPa ESE 15 km/h 15 km/h 68 % 0 mm
23:40 -7.3 °C -10.8 °C 33992.1 hPa ESE 9 km/h 9 km/h 67 % 0 mm
23:45 -7.3 °C -10.7 °C 33992.1 hPa NNE 9 km/h 9 km/h 68 % 0 mm
23:50 -7.3 °C -10.7 °C 33992.1 hPa East 11.9 km/h 11.9 km/h 68 % 0 mm
23:55 -7.3 °C -10.7 °C 33992.1 hPa SE 15 km/h 15 km/h 68 % 0 mm
Meteo Sesrovires
Elogis d' Weather Underground - 2 mb

Guio original per  Jim McMurry - jmcmurry@mwt.net Adaptat per a la plantilla per  Wim van der Kuil - Leuven-Template.eu

Trobareu la nostra informacio del temps tambe a:

Weather Underground

AWEKAS